createdAt,value
2022-10-08T00:01:20.526Z,2.90
2022-10-08T00:03:49.027Z,3.63
2022-10-08T00:06:17.827Z,3.45
2022-10-08T00:08:49.439Z,2.78
2022-10-08T00:11:17.605Z,2.95
2022-10-08T00:13:46.145Z,3.30
2022-10-08T00:16:15.005Z,4.05
2022-10-08T00:18:42.852Z,2.65
2022-10-08T00:21:14.269Z,3.17
2022-10-08T00:23:41.614Z,2.70
2022-10-08T00:26:11.202Z,3.25
2022-10-08T00:28:38.948Z,2.63
2022-10-08T00:31:07.543Z,2.55
2022-10-08T00:33:36.072Z,2.97
2022-10-08T00:36:03.443Z,3.05
2022-10-08T00:38:30.782Z,3.83
2022-10-08T00:40:58.234Z,2.78
2022-10-08T00:43:40.453Z,3.47
2022-10-08T00:46:08.027Z,3.10
2022-10-08T00:48:35.869Z,3.17
2022-10-08T00:51:03.503Z,3.30
2022-10-08T00:53:31.155Z,2.88
2022-10-08T00:55:58.450Z,3.10
2022-10-08T00:58:26.556Z,2.90
2022-10-08T01:00:55.475Z,2.50
2022-10-08T01:03:22.943Z,3.90
2022-10-08T01:05:52.510Z,3.17
2022-10-08T01:08:26.774Z,3.15
2022-10-08T01:10:58.896Z,3.28
2022-10-08T01:13:32.076Z,3.22
2022-10-08T01:16:07.411Z,2.67
2022-10-08T01:18:38.942Z,2.85
2022-10-08T01:21:09.914Z,2.60
2022-10-08T01:23:59.218Z,2.50
2022-10-08T01:26:45.780Z,2.80
2022-10-08T01:29:17.021Z,2.47
2022-10-08T01:31:45.835Z,2.92
2022-10-08T01:34:17.060Z,3.22
2022-10-08T01:36:46.658Z,2.70
2022-10-08T01:39:17.177Z,2.55
2022-10-08T01:41:47.171Z,2.85
2022-10-08T01:44:17.697Z,2.53
2022-10-08T01:46:46.704Z,3.30
2022-10-08T01:49:16.782Z,2.88
2022-10-08T01:51:47.206Z,3.22
2022-10-08T01:54:16.320Z,3.00
2022-10-08T01:56:45.214Z,2.78
2022-10-08T01:59:14.174Z,3.50
2022-10-08T02:01:45.607Z,2.80
2022-10-08T02:04:30.536Z,2.85
2022-10-08T02:06:59.078Z,3.38
2022-10-08T02:09:26.684Z,3.28
2022-10-08T02:11:54.239Z,3.10
2022-10-08T02:14:25.750Z,2.83
2022-10-08T02:16:59.068Z,3.42
2022-10-08T02:19:30.388Z,2.60
2022-10-08T02:22:00.787Z,2.20
2022-10-08T02:24:31.458Z,2.42
2022-10-08T02:26:59.828Z,3.55
2022-10-08T02:29:29.571Z,2.45
2022-10-08T02:32:03.221Z,2.97
2022-10-08T02:34:32.200Z,2.33
2022-10-08T02:37:02.356Z,2.20
2022-10-08T02:39:30.483Z,2.50
2022-10-08T02:42:00.877Z,2.55
2022-10-08T02:44:32.556Z,2.75
2022-10-08T02:47:03.019Z,2.90
2022-10-08T02:49:31.956Z,2.30
2022-10-08T02:52:01.434Z,2.60
2022-10-08T02:54:30.939Z,2.97
2022-10-08T02:57:00.183Z,2.28
2022-10-08T02:59:27.825Z,2.45
2022-10-08T03:01:58.164Z,1.80
2022-10-08T03:04:28.596Z,2.20
2022-10-08T03:06:56.351Z,2.65
2022-10-08T03:09:25.078Z,1.80
2022-10-08T03:11:53.206Z,1.92
2022-10-08T03:14:21.156Z,2.42
2022-10-08T03:16:49.058Z,2.33
2022-10-08T03:19:17.418Z,2.20
2022-10-08T03:21:47.922Z,3.45
2022-10-08T03:24:15.528Z,2.13
2022-10-08T03:26:43.235Z,2.72
2022-10-08T03:29:10.534Z,2.53
2022-10-08T03:31:37.855Z,2.47
2022-10-08T03:34:05.214Z,1.92
2022-10-08T03:36:32.508Z,2.50
2022-10-08T03:39:01.161Z,2.20
2022-10-08T03:41:31.168Z,3.15
2022-10-08T03:43:58.961Z,2.88
2022-10-08T03:46:26.445Z,2.88
2022-10-08T03:48:53.849Z,2.80
2022-10-08T03:51:21.538Z,2.60
2022-10-08T03:53:48.862Z,2.70
2022-10-08T03:56:18.197Z,3.45
2022-10-08T03:58:45.532Z,2.72
2022-10-08T04:01:14.275Z,2.42
2022-10-08T04:03:41.707Z,2.38
2022-10-08T04:06:09.334Z,2.90
2022-10-08T04:08:36.802Z,2.97
2022-10-08T04:11:04.870Z,2.15
2022-10-08T04:13:33.928Z,2.28
2022-10-08T04:16:02.074Z,3.05
2022-10-08T04:18:29.484Z,2.10
2022-10-08T04:21:00.362Z,2.13
2022-10-08T04:23:28.031Z,3.05
2022-10-08T04:25:55.781Z,2.53
2022-10-08T04:28:23.461Z,2.47
2022-10-08T04:30:59.735Z,2.60
2022-10-08T04:33:27.644Z,2.50
2022-10-08T04:35:59.864Z,3.75
2022-10-08T04:38:27.722Z,4.10
2022-10-08T04:41:02.046Z,3.63
2022-10-08T04:43:29.413Z,3.58
2022-10-08T04:45:56.769Z,3.72
2022-10-08T04:48:25.493Z,3.40
2022-10-08T04:50:55.366Z,4.70
2022-10-08T04:53:22.710Z,4.25
2022-10-08T04:55:50.017Z,4.13
2022-10-08T04:58:17.365Z,4.35
2022-10-08T05:00:44.744Z,4.30
2022-10-08T05:03:12.227Z,3.80
2022-10-08T05:05:41.549Z,4.28
2022-10-08T05:08:09.274Z,3.63
2022-10-08T05:10:36.637Z,3.95
2022-10-08T05:13:04.153Z,4.75
2022-10-08T05:15:31.751Z,4.30
2022-10-08T05:17:59.107Z,4.57
2022-10-08T05:20:26.528Z,4.90
2022-10-08T05:22:55.149Z,5.07
2022-10-08T05:25:22.523Z,4.68
2022-10-08T05:27:49.816Z,5.82
2022-10-08T05:30:21.728Z,6.18
2022-10-08T05:32:49.794Z,5.57
2022-10-08T05:35:17.578Z,5.80
2022-10-08T05:37:44.903Z,6.15
2022-10-08T05:40:13.551Z,6.38
2022-10-08T05:42:40.861Z,6.90
2022-10-08T05:45:08.616Z,6.38
2022-10-08T05:47:35.885Z,6.80
2022-10-08T05:50:03.234Z,6.65
2022-10-08T05:52:30.530Z,6.68
2022-10-08T05:54:57.831Z,7.22
2022-10-08T05:57:26.533Z,7.28
2022-10-08T05:59:53.900Z,7.53
2022-10-08T06:02:22.131Z,7.32
2022-10-08T06:04:49.639Z,7.72
2022-10-08T06:07:17.028Z,8.48
2022-10-08T06:09:45.588Z,8.55
2022-10-08T06:12:13.790Z,8.85
2022-10-08T06:14:42.442Z,9.27
2022-10-08T06:17:09.861Z,9.38
2022-10-08T06:19:37.780Z,9.35
2022-10-08T06:22:05.582Z,8.85
2022-10-08T06:24:32.952Z,8.10
2022-10-08T06:27:00.242Z,9.77
2022-10-08T06:29:27.578Z,9.50
2022-10-08T06:31:56.312Z,8.77
2022-10-08T06:34:24.241Z,8.50
2022-10-08T06:36:51.551Z,8.30
2022-10-08T06:39:19.510Z,9.18
2022-10-08T06:41:46.840Z,8.52
2022-10-08T06:44:15.291Z,8.25
2022-10-08T06:46:42.829Z,8.85
2022-10-08T06:49:12.264Z,7.53
2022-10-08T06:51:39.648Z,8.10
2022-10-08T06:54:08.525Z,9.48
2022-10-08T06:56:36.805Z,8.15
2022-10-08T06:59:04.583Z,7.95
2022-10-08T07:01:34.091Z,8.68
2022-10-08T07:04:03.025Z,8.52
2022-10-08T07:06:31.740Z,8.80
2022-10-08T07:09:00.005Z,8.73
2022-10-08T07:11:27.602Z,8.70
2022-10-08T07:13:55.424Z,9.30
2022-10-08T07:16:23.742Z,8.55
2022-10-08T07:18:52.050Z,9.07
2022-10-08T07:21:20.136Z,7.82
2022-10-08T07:23:48.857Z,8.70
2022-10-08T07:26:17.392Z,7.90
2022-10-08T07:28:45.626Z,9.05
2022-10-08T07:31:14.482Z,8.23
2022-10-08T07:33:41.936Z,9.10
2022-10-08T07:36:10.446Z,8.27
2022-10-08T07:38:38.147Z,8.82
2022-10-08T07:41:07.591Z,8.25
2022-10-08T07:43:35.125Z,9.85
2022-10-08T07:46:02.676Z,9.60
2022-10-08T07:48:33.815Z,10.38
2022-10-08T07:51:06.742Z,11.07
2022-10-08T07:53:35.398Z,13.05
2022-10-08T07:56:02.697Z,11.65
2022-10-08T07:58:31.376Z,10.20
2022-10-08T08:00:58.906Z,10.18
2022-10-08T08:03:26.297Z,10.05
2022-10-08T08:05:54.334Z,10.38
2022-10-08T08:08:23.347Z,10.82
2022-10-08T08:10:50.675Z,9.98
2022-10-08T08:13:17.971Z,9.85
2022-10-08T08:15:46.606Z,10.75
2022-10-08T08:18:13.979Z,10.30
2022-10-08T08:20:42.786Z,9.55
2022-10-08T08:23:10.132Z,9.15
2022-10-08T08:25:37.470Z,9.20
2022-10-08T08:28:04.929Z,9.65
2022-10-08T08:30:32.267Z,7.85
2022-10-08T08:33:00.920Z,6.97
2022-10-08T08:35:28.251Z,7.35
2022-10-08T08:37:55.595Z,7.40
2022-10-08T08:40:22.916Z,7.43
2022-10-08T08:42:54.541Z,6.65
2022-10-08T08:45:45.398Z,6.28
2022-10-08T08:48:17.939Z,6.05
2022-10-08T08:50:48.795Z,6.30
2022-10-08T08:53:16.485Z,5.63
2022-10-08T08:55:45.136Z,5.72
2022-10-08T08:58:27.041Z,5.90
2022-10-08T09:00:57.355Z,6.75
2022-10-08T09:03:27.969Z,4.93
2022-10-08T09:05:57.462Z,5.05
2022-10-08T09:08:27.020Z,4.72
2022-10-08T09:10:56.053Z,4.93
2022-10-08T09:13:25.751Z,4.35
2022-10-08T09:15:55.150Z,4.80
2022-10-08T09:18:22.720Z,4.22
2022-10-08T09:20:51.411Z,4.63
2022-10-08T09:23:19.821Z,4.53
2022-10-08T09:25:49.081Z,4.68
2022-10-08T09:28:37.947Z,5.03
2022-10-08T09:31:11.666Z,4.05
2022-10-08T09:33:40.291Z,3.97
2022-10-08T09:36:10.159Z,4.40
2022-10-08T09:38:38.060Z,4.25
2022-10-08T09:41:06.794Z,3.70
2022-10-08T09:43:34.756Z,4.05
2022-10-08T09:46:11.054Z,3.53
2022-10-08T09:48:39.380Z,3.85
2022-10-08T09:51:12.153Z,4.00
2022-10-08T09:53:42.587Z,4.05
2022-10-08T09:56:10.632Z,3.60
2022-10-08T09:58:47.869Z,4.55
2022-10-08T10:01:15.977Z,3.13
2022-10-08T10:03:48.950Z,3.10
2022-10-08T10:06:21.015Z,3.00
2022-10-08T10:08:54.049Z,3.33
2022-10-08T10:11:25.026Z,3.05
2022-10-08T10:13:52.480Z,3.33
2022-10-08T10:16:23.080Z,2.90
2022-10-08T10:18:53.355Z,3.22
2022-10-08T10:21:24.226Z,2.85
2022-10-08T10:23:58.213Z,2.40
2022-10-08T10:26:28.544Z,2.87
2022-10-08T10:28:57.216Z,2.50
2022-10-08T10:31:28.388Z,2.70
2022-10-08T10:33:58.602Z,2.45
2022-10-08T10:36:27.989Z,2.20
2022-10-08T10:39:04.286Z,2.53
2022-10-08T10:41:34.173Z,2.10
2022-10-08T10:44:03.705Z,2.90
2022-10-08T10:46:33.226Z,1.90
2022-10-08T10:49:00.960Z,2.45
2022-10-08T10:51:41.318Z,2.03
2022-10-08T10:54:22.022Z,1.80
2022-10-08T10:56:52.520Z,2.00
2022-10-08T10:59:27.993Z,1.75
2022-10-08T11:02:00.203Z,2.35
2022-10-08T11:04:39.224Z,1.70
2022-10-08T11:07:10.096Z,1.98
2022-10-08T11:09:43.939Z,2.10
2022-10-08T11:12:18.686Z,2.35
2022-10-08T11:14:51.833Z,1.90
2022-10-08T11:17:29.899Z,2.33
2022-10-08T11:20:03.029Z,2.20
2022-10-08T11:22:34.107Z,1.92
2022-10-08T11:25:19.261Z,2.08
2022-10-08T11:27:50.443Z,2.28
2022-10-08T11:30:19.854Z,2.38
2022-10-08T11:32:51.481Z,2.63
2022-10-08T11:35:22.522Z,3.10
2022-10-08T11:37:52.352Z,2.40
2022-10-08T11:40:23.645Z,2.50
2022-10-08T11:42:57.888Z,3.30
2022-10-08T11:45:32.962Z,2.53
2022-10-08T11:48:00.891Z,2.42
2022-10-08T11:50:30.110Z,2.58
2022-10-08T11:52:59.195Z,2.45
2022-10-08T11:55:27.905Z,2.13
2022-10-08T11:58:13.792Z,3.30
2022-10-08T12:00:41.966Z,2.60
2022-10-08T12:03:20.829Z,2.10
2022-10-08T12:05:50.720Z,2.35
2022-10-08T12:08:36.973Z,2.00
2022-10-08T12:11:19.144Z,1.80
2022-10-08T12:14:07.791Z,1.70
2022-10-08T12:16:49.988Z,1.75
2022-10-08T12:19:32.280Z,1.85
2022-10-08T12:22:00.161Z,1.70
2022-10-08T12:24:50.303Z,1.52
2022-10-08T12:27:28.224Z,1.83
2022-10-08T12:29:58.790Z,1.33
2022-10-08T12:32:26.871Z,1.38
2022-10-08T12:34:54.572Z,1.30
2022-10-08T12:37:30.001Z,1.38
2022-10-08T12:39:59.168Z,1.25
2022-10-08T12:42:28.894Z,1.40
2022-10-08T12:45:09.150Z,1.20
2022-10-08T12:47:42.433Z,1.63
2022-10-08T12:50:23.218Z,1.40
2022-10-08T12:52:50.726Z,1.13
2022-10-08T12:55:20.732Z,1.02
2022-10-08T12:57:49.634Z,1.15
2022-10-08T13:00:22.877Z,1.30
2022-10-08T13:02:59.554Z,1.40
2022-10-08T13:05:28.324Z,1.00
2022-10-08T13:07:55.684Z,1.45
2022-10-08T13:10:24.105Z,1.50
2022-10-08T13:13:01.066Z,1.38
2022-10-08T13:15:30.581Z,1.70
2022-10-08T13:17:57.924Z,1.85
2022-10-08T13:20:25.652Z,1.45
2022-10-08T13:22:53.356Z,0.98
2022-10-08T13:25:39.018Z,1.10
2022-10-08T13:28:13.581Z,1.40
2022-10-08T13:30:43.728Z,1.40
2022-10-08T13:33:13.389Z,1.10
2022-10-08T13:35:41.353Z,1.50
2022-10-08T13:38:09.195Z,1.23
2022-10-08T13:40:36.868Z,1.00
2022-10-08T13:43:07.330Z,1.40
2022-10-08T13:45:36.690Z,1.33
2022-10-08T13:48:06.634Z,1.40
2022-10-08T13:50:33.976Z,1.30
2022-10-08T13:53:01.710Z,1.15
2022-10-08T13:55:30.370Z,1.30
2022-10-08T13:57:59.842Z,1.58
2022-10-08T14:00:27.730Z,1.40
2022-10-08T14:02:55.186Z,1.88
2022-10-08T14:05:24.774Z,1.55
2022-10-08T14:07:53.265Z,1.20
2022-10-08T14:10:20.782Z,1.40
2022-10-08T14:12:48.130Z,1.27
2022-10-08T14:15:16.342Z,1.48
2022-10-08T14:17:43.792Z,1.50
2022-10-08T14:20:11.461Z,1.35
2022-10-08T14:22:40.119Z,0.98
2022-10-08T14:25:08.228Z,1.80
2022-10-08T14:27:35.601Z,0.95
2022-10-08T14:30:02.942Z,1.02
2022-10-08T14:32:30.278Z,1.10
2022-10-08T14:34:57.601Z,0.93
2022-10-08T14:37:24.967Z,1.27
2022-10-08T14:39:53.676Z,1.17
2022-10-08T14:42:20.958Z,1.42
2022-10-08T14:44:48.467Z,1.40
2022-10-08T14:47:16.391Z,1.10
2022-10-08T14:49:43.721Z,1.20
2022-10-08T14:52:11.035Z,1.25
2022-10-08T14:54:39.886Z,1.10
2022-10-08T14:57:08.618Z,1.70
2022-10-08T14:59:40.046Z,1.50
2022-10-08T15:02:07.903Z,1.27
2022-10-08T15:04:35.289Z,1.35
2022-10-08T15:07:02.616Z,1.30
2022-10-08T15:09:31.277Z,0.93
2022-10-08T15:11:58.628Z,1.30
2022-10-08T15:14:27.285Z,0.80
2022-10-08T15:16:54.742Z,1.52
2022-10-08T15:19:23.916Z,1.65
2022-10-08T15:21:51.664Z,1.38
2022-10-08T15:24:19.009Z,1.48
2022-10-08T15:26:46.468Z,1.08
2022-10-08T15:29:13.785Z,1.48
2022-10-08T15:31:42.500Z,1.55
2022-10-08T15:34:16.199Z,1.10
2022-10-08T15:36:43.663Z,0.98
2022-10-08T15:39:12.001Z,1.27
2022-10-08T15:41:41.889Z,1.35
2022-10-08T15:44:10.562Z,1.20
2022-10-08T15:46:38.004Z,1.85
2022-10-08T15:49:06.690Z,1.33
2022-10-08T15:51:34.453Z,1.30
2022-10-08T15:54:02.218Z,1.15
2022-10-08T15:56:29.805Z,1.02
2022-10-08T15:58:58.561Z,1.80
2022-10-08T16:01:26.252Z,1.45
2022-10-08T16:03:54.826Z,1.58
2022-10-08T16:06:27.312Z,1.30
2022-10-08T16:08:56.549Z,1.52
2022-10-08T16:11:25.383Z,1.92
2022-10-08T16:13:53.418Z,1.55
2022-10-08T16:16:21.212Z,1.90
2022-10-08T16:18:50.883Z,1.38
2022-10-08T16:21:18.632Z,2.03
2022-10-08T16:23:47.698Z,4.30
2022-10-08T16:26:21.096Z,6.13
2022-10-08T16:28:49.124Z,2.78
2022-10-08T16:31:16.482Z,2.85
2022-10-08T16:33:43.999Z,3.25
2022-10-08T16:36:11.312Z,2.28
2022-10-08T16:38:40.051Z,2.60
2022-10-08T16:41:15.735Z,2.28
2022-10-08T16:43:46.015Z,1.60
2022-10-08T16:46:14.444Z,1.88
2022-10-08T16:48:41.826Z,1.20
2022-10-08T16:51:09.806Z,1.13
2022-10-08T16:53:37.251Z,1.25
2022-10-08T16:56:05.258Z,1.92
2022-10-08T16:58:33.938Z,1.80
2022-10-08T17:01:05.135Z,2.35
2022-10-08T17:03:32.716Z,1.70
2022-10-08T17:06:00.080Z,2.00
2022-10-08T17:08:27.425Z,2.53
2022-10-08T17:10:54.759Z,2.72
2022-10-08T17:13:22.338Z,2.83
2022-10-08T17:15:59.729Z,2.80
2022-10-08T17:18:27.248Z,2.67
2022-10-08T17:20:57.709Z,2.90
2022-10-08T17:23:25.760Z,1.90
2022-10-08T17:25:56.783Z,2.22
2022-10-08T17:28:28.073Z,1.95
2022-10-08T17:30:55.539Z,1.73
2022-10-08T17:33:24.262Z,2.00
2022-10-08T17:35:59.848Z,1.98
2022-10-08T17:38:27.180Z,2.45
2022-10-08T17:40:54.499Z,2.50
2022-10-08T17:43:21.837Z,2.00
2022-10-08T17:45:49.150Z,2.65
2022-10-08T17:48:16.546Z,2.40
2022-10-08T17:50:45.220Z,2.22
2022-10-08T17:53:12.538Z,2.95
2022-10-08T17:55:39.867Z,2.33
2022-10-08T17:58:07.209Z,3.15
2022-10-08T18:00:34.497Z,2.40
2022-10-08T18:03:01.883Z,2.42
2022-10-08T18:05:29.349Z,2.30
2022-10-08T18:07:57.984Z,2.40
2022-10-08T18:10:25.310Z,2.50
2022-10-08T18:12:52.802Z,2.40
2022-10-08T18:15:20.171Z,2.63
2022-10-08T18:17:47.779Z,2.85
2022-10-08T18:20:15.237Z,2.85
2022-10-08T18:22:42.567Z,2.67
2022-10-08T18:25:12.291Z,4.40
2022-10-08T18:27:39.639Z,3.72
2022-10-08T18:30:07.668Z,3.13
2022-10-08T18:32:35.009Z,2.92
2022-10-08T18:35:02.332Z,2.70
2022-10-08T18:37:29.626Z,2.63
2022-10-08T18:39:56.933Z,3.70
2022-10-08T18:42:25.618Z,3.10
2022-10-08T18:44:52.923Z,2.83
2022-10-08T18:47:20.226Z,2.53
2022-10-08T18:49:47.559Z,2.70
2022-10-08T18:52:19.162Z,3.38
2022-10-08T18:54:48.634Z,3.55
2022-10-08T18:57:15.934Z,3.22
2022-10-08T18:59:44.687Z,3.50
2022-10-08T19:02:12.081Z,3.40
2022-10-08T19:04:39.555Z,3.22
2022-10-08T19:07:08.577Z,2.60
2022-10-08T19:09:35.910Z,2.92
2022-10-08T19:12:03.427Z,2.65
2022-10-08T19:14:30.835Z,2.95
2022-10-08T19:17:00.104Z,3.30
2022-10-08T19:19:28.371Z,2.78
2022-10-08T19:21:55.672Z,2.50
2022-10-08T19:24:23.809Z,3.40
2022-10-08T19:26:51.221Z,2.88
2022-10-08T19:29:19.899Z,3.22
2022-10-08T19:31:48.420Z,2.90
2022-10-08T19:34:18.020Z,2.50
2022-10-08T19:36:45.500Z,2.83
2022-10-08T19:39:13.731Z,2.92
2022-10-08T19:41:41.456Z,2.45
2022-10-08T19:44:09.070Z,2.60
2022-10-08T19:46:36.560Z,3.15
2022-10-08T19:49:04.930Z,2.38
2022-10-08T19:51:33.822Z,2.85
2022-10-08T19:54:01.475Z,2.80
2022-10-08T19:56:30.155Z,2.90
2022-10-08T19:58:57.999Z,3.35
2022-10-08T20:01:26.274Z,3.30
2022-10-08T20:03:54.796Z,2.70
2022-10-08T20:06:24.726Z,2.95
2022-10-08T20:08:54.996Z,3.17
2022-10-08T20:11:22.295Z,2.75
2022-10-08T20:13:50.307Z,3.17
2022-10-08T20:16:18.872Z,2.92
2022-10-08T20:18:49.083Z,3.05
2022-10-08T20:21:16.570Z,12.35
2022-10-08T20:23:44.123Z,42.65
2022-10-08T20:26:14.687Z,103.13
2022-10-08T20:28:42.146Z,67.70
2022-10-08T20:31:10.362Z,27.63
2022-10-08T20:33:37.860Z,10.43
2022-10-08T20:36:05.154Z,7.82
2022-10-08T20:38:32.588Z,14.63
2022-10-08T20:40:59.953Z,6.07
2022-10-08T20:43:29.092Z,6.00
2022-10-08T20:45:56.566Z,6.10
2022-10-08T20:48:23.893Z,4.63
2022-10-08T20:50:51.250Z,4.18
2022-10-08T20:53:18.607Z,5.28
2022-10-08T20:55:45.957Z,6.85
2022-10-08T20:58:13.357Z,11.18
2022-10-08T21:00:42.100Z,6.15
2022-10-08T21:03:09.545Z,4.05
2022-10-08T21:05:39.866Z,9.65
2022-10-08T21:08:07.220Z,10.20
2022-10-08T21:10:36.160Z,6.82
2022-10-08T21:13:03.503Z,5.93
2022-10-08T21:15:31.055Z,4.43
2022-10-08T21:17:59.714Z,3.45
2022-10-08T21:20:27.067Z,3.70
2022-10-08T21:22:54.457Z,4.13
2022-10-08T21:25:21.903Z,3.90
2022-10-08T21:27:49.229Z,3.83
2022-10-08T21:30:19.719Z,3.58
2022-10-08T21:32:49.003Z,3.58
2022-10-08T21:35:17.984Z,64.05
2022-10-08T21:37:45.349Z,7.25
2022-10-08T21:40:12.870Z,4.18
2022-10-08T21:42:40.225Z,3.63
2022-10-08T21:45:07.931Z,4.07
2022-10-08T21:47:37.194Z,3.53
2022-10-08T21:50:04.716Z,3.65
2022-10-08T21:52:33.599Z,3.42
2022-10-08T21:55:00.956Z,3.20
2022-10-08T21:57:28.430Z,3.20
2022-10-08T21:59:55.778Z,3.40
2022-10-08T22:02:23.169Z,3.42
2022-10-08T22:04:50.707Z,3.33
2022-10-08T22:07:18.017Z,2.92
2022-10-08T22:09:46.700Z,4.20
2022-10-08T22:12:14.042Z,3.80
2022-10-08T22:14:41.379Z,3.35
2022-10-08T22:17:08.671Z,3.85
2022-10-08T22:19:36.554Z,3.55
2022-10-08T22:22:03.993Z,4.22
2022-10-08T22:24:31.335Z,4.97
2022-10-08T22:27:00.055Z,5.28
2022-10-08T22:29:27.406Z,4.55
2022-10-08T22:31:54.853Z,4.20
2022-10-08T22:34:22.283Z,4.55
2022-10-08T22:36:49.676Z,4.68
2022-10-08T22:39:17.178Z,4.78
2022-10-08T22:41:44.553Z,4.75
2022-10-08T22:44:13.284Z,4.80
2022-10-08T22:46:40.667Z,5.22
2022-10-08T22:49:08.883Z,6.15
2022-10-08T22:51:36.409Z,5.82
2022-10-08T22:54:03.843Z,5.32
2022-10-08T22:56:32.209Z,6.05
2022-10-08T22:58:59.914Z,5.97
2022-10-08T23:01:29.486Z,6.18
2022-10-08T23:03:56.809Z,5.53
2022-10-08T23:06:24.803Z,6.10
2022-10-08T23:08:53.724Z,6.65
2022-10-08T23:11:21.034Z,5.85
2022-10-08T23:13:50.435Z,6.43
2022-10-08T23:16:18.096Z,6.03
2022-10-08T23:18:47.952Z,6.55
2022-10-08T23:21:16.738Z,6.45
2022-10-08T23:23:44.416Z,6.60
2022-10-08T23:26:11.960Z,6.90
2022-10-08T23:28:39.593Z,7.40
2022-10-08T23:31:07.893Z,7.35
2022-10-08T23:33:37.777Z,7.07
2022-10-08T23:36:07.253Z,8.13
2022-10-08T23:38:35.091Z,7.53
2022-10-08T23:41:02.690Z,6.82
2022-10-08T23:43:30.540Z,7.63
2022-10-08T23:45:57.888Z,6.60
2022-10-08T23:48:25.407Z,7.22
2022-10-08T23:50:53.346Z,6.95
2022-10-08T23:53:22.224Z,7.00
2022-10-08T23:55:49.790Z,7.63
2022-10-08T23:58:17.780Z,7.30
